sensor_id;sensor_type;location;lat;lon;timestamp;pressure;altitude;pressure_sealevel;temperature;humidity
64711;BME280;51139;45.626;6.850;2023-04-10T09:57:54;82220.28;;;9.07;45.23
64711;BME280;51139;45.626;6.850;2023-04-10T10:00:21;82220.47;;;9.85;36.81
64711;BME280;51139;45.626;6.850;2023-04-10T10:02:47;82221.00;;;10.01;41.84
64711;BME280;51139;45.626;6.850;2023-04-10T10:05:14;82217.50;;;9.81;36.30
64711;BME280;51139;45.626;6.850;2023-04-10T10:07:39;82206.53;;;9.84;42.41
64711;BME280;51139;45.626;6.850;2023-04-10T10:10:06;82226.88;;;9.99;31.69
64711;BME280;51139;45.626;6.850;2023-04-10T10:20:44;82212.09;;;9.71;30.73
64711;BME280;51139;45.626;6.850;2023-04-10T10:23:10;82216.41;;;9.84;31.89
64711;BME280;51139;45.626;6.850;2023-04-10T10:25:36;82205.31;;;9.60;32.65
64711;BME280;51139;45.626;6.850;2023-04-10T10:28:03;82204.69;;;9.69;29.56
64711;BME280;51139;45.626;6.850;2023-04-10T10:30:33;82205.53;;;9.80;31.57
64711;BME280;51139;45.626;6.850;2023-04-10T10:33:04;82207.97;;;10.20;26.11
64711;BME280;51139;45.626;6.850;2023-04-10T10:35:30;82200.00;;;9.85;28.91
64711;BME280;51139;45.626;6.850;2023-04-10T10:37:57;82194.31;;;9.89;27.63
64711;BME280;51139;45.626;6.850;2023-04-10T10:40:37;82197.75;;;9.99;34.29
64711;BME280;51139;45.626;6.850;2023-04-10T10:46:12;82195.75;;;10.07;31.72
64711;BME280;51139;45.626;6.850;2023-04-10T10:48:54;82194.44;;;10.16;33.00
64711;BME280;51139;45.626;6.850;2023-04-10T10:51:19;82194.78;;;9.77;27.44
64711;BME280;51139;45.626;6.850;2023-04-10T10:53:45;82197.56;;;10.40;28.04
64711;BME280;51139;45.626;6.850;2023-04-10T10:58:50;82192.25;;;10.22;31.96
64711;BME280;51139;45.626;6.850;2023-04-10T11:01:16;82203.53;;;10.58;29.70
64711;BME280;51139;45.626;6.850;2023-04-10T11:03:42;82201.50;;;10.49;29.09
64711;BME280;51139;45.626;6.850;2023-04-10T11:06:13;82201.25;;;10.72;26.03
64711;BME280;51139;45.626;6.850;2023-04-10T11:08:43;82210.09;;;10.40;27.51
64711;BME280;51139;45.626;6.850;2023-04-10T11:16:22;82206.25;;;11.13;25.07
64711;BME280;51139;45.626;6.850;2023-04-10T11:21:19;82213.19;;;10.11;27.22
64711;BME280;51139;45.626;6.850;2023-04-10T11:28:57;82206.22;;;10.86;24.56
64711;BME280;51139;45.626;6.850;2023-04-10T11:31:22;82211.41;;;11.11;26.89
64711;BME280;51139;45.626;6.850;2023-04-10T11:34:10;82202.28;;;10.77;24.14
64711;BME280;51139;45.626;6.850;2023-04-10T11:36:42;82199.63;;;11.04;22.90
64711;BME280;51139;45.626;6.850;2023-04-10T11:39:10;82203.06;;;10.52;23.55
64711;BME280;51139;45.626;6.850;2023-04-10T11:41:44;82204.53;;;10.80;25.90
64711;BME280;51139;45.626;6.850;2023-04-10T11:44:25;82204.94;;;10.59;23.54
64711;BME280;51139;45.626;6.850;2023-04-10T11:46:52;82206.41;;;10.70;26.42
64711;BME280;51139;45.626;6.850;2023-04-10T11:49:19;82210.81;;;10.40;24.62
64711;BME280;51139;45.626;6.850;2023-04-10T11:51:46;82216.00;;;10.48;30.65
64711;BME280;51139;45.626;6.850;2023-04-10T11:54:17;82206.75;;;10.57;29.78
64711;BME280;51139;45.626;6.850;2023-04-10T11:57:03;82216.31;;;10.70;27.70
64711;BME280;51139;45.626;6.850;2023-04-10T11:59:32;82210.81;;;10.40;30.95
64711;BME280;51139;45.626;6.850;2023-04-10T12:02:13;82226.50;;;10.20;29.06
64711;BME280;51139;45.626;6.850;2023-04-10T12:04:40;82221.84;;;10.64;26.11
64711;BME280;51139;45.626;6.850;2023-04-10T12:07:06;82222.78;;;10.59;29.45
64711;BME280;51139;45.626;6.850;2023-04-10T12:09:32;82220.44;;;10.28;31.24
64711;BME280;51139;45.626;6.850;2023-04-10T12:12:02;82224.09;;;10.85;31.11
64711;BME280;51139;45.626;6.850;2023-04-10T12:14:32;82227.50;;;10.95;25.78
64711;BME280;51139;45.626;6.850;2023-04-10T12:16:58;82236.13;;;11.14;28.91
64711;BME280;51139;45.626;6.850;2023-04-10T12:19:24;82231.22;;;11.37;29.08
64711;BME280;51139;45.626;6.850;2023-04-10T12:21:50;82232.06;;;11.40;29.00
64711;BME280;51139;45.626;6.850;2023-04-10T12:27:07;82213.00;;;10.97;30.42
64711;BME280;51139;45.626;6.850;2023-04-10T12:29:33;82218.09;;;11.39;26.33
64711;BME280;51139;45.626;6.850;2023-04-10T12:32:06;82210.94;;;11.05;25.90
64711;BME280;51139;45.626;6.850;2023-04-10T12:34:32;82208.78;;;10.93;26.80
64711;BME280;51139;45.626;6.850;2023-04-10T12:36:57;82207.84;;;10.99;29.44
64711;BME280;51139;45.626;6.850;2023-04-10T12:39:23;82195.81;;;10.70;31.50
64711;BME280;51139;45.626;6.850;2023-04-10T12:41:49;82205.94;;;10.64;28.49
64711;BME280;51139;45.626;6.850;2023-04-10T12:44:15;82211.97;;;10.92;27.95
64711;BME280;51139;45.626;6.850;2023-04-10T12:46:41;82204.69;;;11.10;28.53
64711;BME280;51139;45.626;6.850;2023-04-10T12:49:10;82208.59;;;11.36;30.73
64711;BME280;51139;45.626;6.850;2023-04-10T12:51:46;82206.75;;;11.29;31.35
64711;BME280;51139;45.626;6.850;2023-04-10T12:56:56;82219.53;;;11.88;29.97
64711;BME280;51139;45.626;6.850;2023-04-10T12:59:23;82211.41;;;12.23;26.54
64711;BME280;51139;45.626;6.850;2023-04-10T13:01:48;82206.06;;;11.66;25.97
64711;BME280;51139;45.626;6.850;2023-04-10T13:04:13;82225.59;;;11.61;25.68
64711;BME280;51139;45.626;6.850;2023-04-10T13:06:43;82210.59;;;11.18;27.64
64711;BME280;51139;45.626;6.850;2023-04-10T13:09:09;82211.75;;;11.25;29.76
64711;BME280;51139;45.626;6.850;2023-04-10T13:11:35;82220.81;;;11.22;29.50
64711;BME280;51139;45.626;6.850;2023-04-10T13:14:00;82218.38;;;10.89;29.40
64711;BME280;51139;45.626;6.850;2023-04-10T13:16:25;82224.00;;;11.48;28.33
64711;BME280;51139;45.626;6.850;2023-04-10T13:18:51;82224.22;;;10.87;29.97
64711;BME280;51139;45.626;6.850;2023-04-10T13:21:16;82220.84;;;11.59;25.45
64711;BME280;51139;45.626;6.850;2023-04-10T13:23:47;82212.00;;;11.47;24.39
64711;BME280;51139;45.626;6.850;2023-04-10T13:26:12;82205.63;;;10.77;28.53
64711;BME280;51139;45.626;6.850;2023-04-10T13:28:37;82205.25;;;11.08;28.85
64711;BME280;51139;45.626;6.850;2023-04-10T13:31:03;82208.75;;;11.38;25.90
64711;BME280;51139;45.626;6.850;2023-04-10T13:33:28;82210.59;;;11.46;27.39
64711;BME280;51139;45.626;6.850;2023-04-10T13:35:53;82206.53;;;11.45;27.79
64711;BME280;51139;45.626;6.850;2023-04-10T13:38:19;82203.59;;;11.41;25.58
64711;BME280;51139;45.626;6.850;2023-04-10T13:40:44;82190.69;;;11.27;26.08
64711;BME280;51139;45.626;6.850;2023-04-10T13:43:10;82193.47;;;11.57;29.62
64711;BME280;51139;45.626;6.850;2023-04-10T13:45:35;82201.28;;;11.55;27.16
64711;BME280;51139;45.626;6.850;2023-04-10T13:48:01;82199.34;;;11.28;29.59
64711;BME280;51139;45.626;6.850;2023-04-10T13:50:26;82197.53;;;11.30;26.11
64711;BME280;51139;45.626;6.850;2023-04-10T13:52:52;82199.19;;;11.26;24.34
64711;BME280;51139;45.626;6.850;2023-04-10T13:55:17;82185.47;;;11.19;24.72
64711;BME280;51139;45.626;6.850;2023-04-10T13:57:43;82191.06;;;10.96;26.04
64711;BME280;51139;45.626;6.850;2023-04-10T14:00:23;82183.22;;;10.61;24.86
64711;BME280;51139;45.626;6.850;2023-04-10T14:02:49;82188.59;;;11.26;27.12
64711;BME280;51139;45.626;6.850;2023-04-10T14:05:14;82187.59;;;11.21;26.78
64711;BME280;51139;45.626;6.850;2023-04-10T14:07:40;82186.25;;;10.22;24.18
64711;BME280;51139;45.626;6.850;2023-04-10T14:10:05;82180.88;;;10.65;25.52
64711;BME280;51139;45.626;6.850;2023-04-10T14:12:31;82182.81;;;11.09;26.31
64711;BME280;51139;45.626;6.850;2023-04-10T14:14:57;82188.88;;;11.02;28.26
64711;BME280;51139;45.626;6.850;2023-04-10T14:17:23;82184.97;;;10.76;27.44
64711;BME280;51139;45.626;6.850;2023-04-10T14:19:48;82195.44;;;10.74;29.42
64711;BME280;51139;45.626;6.850;2023-04-10T14:22:16;82198.41;;;10.43;30.04
64711;BME280;51139;45.626;6.850;2023-04-10T14:24:42;82195.75;;;11.05;26.24
64711;BME280;51139;45.626;6.850;2023-04-10T14:27:07;82195.28;;;10.72;28.25
64711;BME280;51139;45.626;6.850;2023-04-10T14:29:32;82204.63;;;10.73;26.86
64711;BME280;51139;45.626;6.850;2023-04-10T14:31:58;82197.59;;;11.13;26.99
64711;BME280;51139;45.626;6.850;2023-04-10T14:34:23;82198.72;;;11.09;28.24
64711;BME280;51139;45.626;6.850;2023-04-10T14:36:49;82197.63;;;10.68;29.41
64711;BME280;51139;45.626;6.850;2023-04-10T14:39:14;82203.53;;;10.76;29.02
64711;BME280;51139;45.626;6.850;2023-04-10T14:41:39;82205.78;;;10.79;28.45
64711;BME280;51139;45.626;6.850;2023-04-10T14:44:05;82203.38;;;11.01;28.37
64711;BME280;51139;45.626;6.850;2023-04-10T14:46:30;82205.19;;;10.99;26.56
64711;BME280;51139;45.626;6.850;2023-04-10T14:48:55;82206.22;;;10.86;25.53
64711;BME280;51139;45.626;6.850;2023-04-10T14:51:21;82204.84;;;10.14;25.18
64711;BME280;51139;45.626;6.850;2023-04-10T14:53:46;82209.13;;;10.27;26.02
64711;BME280;51139;45.626;6.850;2023-04-10T14:56:13;82209.22;;;10.37;28.55
64711;BME280;51139;45.626;6.850;2023-04-10T14:58:39;82212.88;;;10.24;29.78
64711;BME280;51139;45.626;6.850;2023-04-10T15:01:11;82214.81;;;10.76;26.43
64711;BME280;51139;45.626;6.850;2023-04-10T15:03:37;82222.53;;;10.47;26.80
64711;BME280;51139;45.626;6.850;2023-04-10T15:06:03;82210.00;;;10.65;25.66
64711;BME280;51139;45.626;6.850;2023-04-10T15:08:29;82210.03;;;10.47;24.54
64711;BME280;51139;45.626;6.850;2023-04-10T15:10:54;82216.63;;;10.56;25.09
64711;BME280;51139;45.626;6.850;2023-04-10T15:13:20;82225.34;;;10.67;26.13
64711;BME280;51139;45.626;6.850;2023-04-10T15:15:46;82210.78;;;10.58;25.29
64711;BME280;51139;45.626;6.850;2023-04-10T15:18:12;82214.91;;;10.51;26.88
64711;BME280;51139;45.626;6.850;2023-04-10T15:20:38;82208.72;;;10.13;25.87
64711;BME280;51139;45.626;6.850;2023-04-10T15:23:03;82221.59;;;10.17;25.73
64711;BME280;51139;45.626;6.850;2023-04-10T15:25:31;82212.25;;;10.16;25.43
64711;BME280;51139;45.626;6.850;2023-04-10T15:27:57;82218.50;;;10.46;26.80
64711;BME280;51139;45.626;6.850;2023-04-10T15:30:22;82222.06;;;10.23;26.27
64711;BME280;51139;45.626;6.850;2023-04-10T15:32:47;82210.59;;;10.03;24.54
64711;BME280;51139;45.626;6.850;2023-04-10T15:35:13;82212.28;;;9.90;25.58
64711;BME280;51139;45.626;6.850;2023-04-10T15:37:40;82212.06;;;9.28;25.65
64711;BME280;51139;45.626;6.850;2023-04-10T15:40:06;82212.16;;;9.12;25.97
64711;BME280;51139;45.626;6.850;2023-04-10T15:42:34;82204.94;;;9.38;27.38
64711;BME280;51139;45.626;6.850;2023-04-10T15:44:59;82208.22;;;9.46;27.86
64711;BME280;51139;45.626;6.850;2023-04-10T15:47:25;82209.81;;;10.10;26.66
64711;BME280;51139;45.626;6.850;2023-04-10T15:49:51;82214.53;;;9.76;25.77
64711;BME280;51139;45.626;6.850;2023-04-10T15:52:16;82217.97;;;9.44;26.85
64711;BME280;51139;45.626;6.850;2023-04-10T15:54:44;82214.28;;;9.64;27.14
64711;BME280;51139;45.626;6.850;2023-04-10T15:57:09;82216.91;;;10.07;26.33
64711;BME280;51139;45.626;6.850;2023-04-10T15:59:35;82209.75;;;10.00;28.39
64711;BME280;51139;45.626;6.850;2023-04-10T16:02:01;82214.78;;;10.06;26.30
64711;BME280;51139;45.626;6.850;2023-04-10T16:04:29;82210.13;;;9.28;28.55
64711;BME280;51139;45.626;6.850;2023-04-10T16:06:54;82208.94;;;9.72;27.23
64711;BME280;51139;45.626;6.850;2023-04-10T16:09:21;82217.72;;;9.75;27.01
64711;BME280;51139;45.626;6.850;2023-04-10T16:11:46;82206.69;;;9.86;27.01
64711;BME280;51139;45.626;6.850;2023-04-10T16:14:12;82204.66;;;9.95;26.26
64711;BME280;51139;45.626;6.850;2023-04-10T16:16:38;82205.63;;;10.25;27.15
64711;BME280;51139;45.626;6.850;2023-04-10T16:19:03;82197.50;;;9.87;25.60
64711;BME280;51139;45.626;6.850;2023-04-10T16:21:30;82195.34;;;9.51;29.48
64711;BME280;51139;45.626;6.850;2023-04-10T16:23:55;82204.66;;;9.77;27.00
64711;BME280;51139;45.626;6.850;2023-04-10T16:26:21;82209.38;;;10.21;27.25
64711;BME280;51139;45.626;6.850;2023-04-10T16:28:47;82207.06;;;10.43;26.87
64711;BME280;51139;45.626;6.850;2023-04-10T16:31:12;82212.72;;;10.40;26.30
64711;BME280;51139;45.626;6.850;2023-04-10T16:37:00;82220.81;;;10.06;26.28
64711;BME280;51139;45.626;6.850;2023-04-10T16:39:29;82219.94;;;10.04;25.55
64711;BME280;51139;45.626;6.850;2023-04-10T16:42:02;82220.19;;;9.73;25.07
64711;BME280;51139;45.626;6.850;2023-04-10T16:45:08;82226.47;;;10.03;25.41
64711;BME280;51139;45.626;6.850;2023-04-10T16:47:55;82223.75;;;9.93;25.65
64711;BME280;51139;45.626;6.850;2023-04-10T16:53:25;82218.75;;;9.54;26.57
64711;BME280;51139;45.626;6.850;2023-04-10T16:55:57;82219.50;;;9.72;25.46
64711;BME280;51139;45.626;6.850;2023-04-10T16:58:25;82220.84;;;9.56;25.78
64711;BME280;51139;45.626;6.850;2023-04-10T17:00:51;82231.22;;;9.61;25.30
64711;BME280;51139;45.626;6.850;2023-04-10T17:03:16;82231.50;;;9.48;25.38
64711;BME280;51139;45.626;6.850;2023-04-10T17:05:41;82227.00;;;9.33;25.90
64711;BME280;51139;45.626;6.850;2023-04-10T17:08:07;82232.09;;;9.05;26.84
64711;BME280;51139;45.626;6.850;2023-04-10T17:10:33;82223.19;;;9.52;26.37
64711;BME280;51139;45.626;6.850;2023-04-10T17:12:58;82223.88;;;9.27;26.60
64711;BME280;51139;45.626;6.850;2023-04-10T17:15:23;82227.03;;;9.00;27.60
64711;BME280;51139;45.626;6.850;2023-04-10T17:17:49;82219.72;;;9.41;27.43
64711;BME280;51139;45.626;6.850;2023-04-10T17:20:15;82217.81;;;9.42;27.08
64711;BME280;51139;45.626;6.850;2023-04-10T17:22:41;82224.81;;;9.47;27.76
64711;BME280;51139;45.626;6.850;2023-04-10T17:25:07;82229.31;;;9.29;27.44
64711;BME280;51139;45.626;6.850;2023-04-10T17:27:32;82226.03;;;9.20;26.77
64711;BME280;51139;45.626;6.850;2023-04-10T17:29:58;82227.16;;;8.76;25.82
64711;BME280;51139;45.626;6.850;2023-04-10T17:32:23;82227.16;;;9.10;26.49
64711;BME280;51139;45.626;6.850;2023-04-10T17:34:49;82228.44;;;9.01;25.67
64711;BME280;51139;45.626;6.850;2023-04-10T17:37:14;82230.25;;;8.90;27.64
64711;BME280;51139;45.626;6.850;2023-04-10T17:39:39;82222.53;;;8.85;28.72
64711;BME280;51139;45.626;6.850;2023-04-10T17:42:05;82220.63;;;9.11;26.33
64711;BME280;51139;45.626;6.850;2023-04-10T17:44:30;82231.19;;;9.11;26.81
64711;BME280;51139;45.626;6.850;2023-04-10T17:46:56;82227.56;;;8.98;26.39
64711;BME280;51139;45.626;6.850;2023-04-10T17:49:21;82227.78;;;8.93;26.53
64711;BME280;51139;45.626;6.850;2023-04-10T17:51:47;82221.53;;;9.05;25.76
64711;BME280;51139;45.626;6.850;2023-04-10T17:54:13;82227.06;;;9.25;27.11
64711;BME280;51139;45.626;6.850;2023-04-10T17:56:38;82228.88;;;9.15;27.16
64711;BME280;51139;45.626;6.850;2023-04-10T17:59:03;82222.88;;;8.89;27.72
64711;BME280;51139;45.626;6.850;2023-04-10T18:01:29;82228.19;;;8.81;25.99
64711;BME280;51139;45.626;6.850;2023-04-10T18:03:58;82223.34;;;8.62;27.03
64711;BME280;51139;45.626;6.850;2023-04-10T18:06:24;82229.38;;;8.55;26.97
64711;BME280;51139;45.626;6.850;2023-04-10T18:08:49;82228.78;;;8.64;26.22
64711;BME280;51139;45.626;6.850;2023-04-10T18:11:15;82225.88;;;8.37;26.52
64711;BME280;51139;45.626;6.850;2023-04-10T18:13:40;82227.25;;;8.53;25.61
64711;BME280;51139;45.626;6.850;2023-04-10T18:16:06;82221.22;;;8.68;26.67
64711;BME280;51139;45.626;6.850;2023-04-10T18:18:34;82216.03;;;8.78;26.17
64711;BME280;51139;45.626;6.850;2023-04-10T18:21:05;82212.22;;;8.71;26.53
64711;BME280;51139;45.626;6.850;2023-04-10T18:23:31;82222.53;;;8.36;26.84
64711;BME280;51139;45.626;6.850;2023-04-10T18:25:57;82221.06;;;8.58;26.97
64711;BME280;51139;45.626;6.850;2023-04-10T18:28:23;82210.66;;;8.60;26.77
64711;BME280;51139;45.626;6.850;2023-04-10T18:30:50;82221.09;;;8.43;27.55
64711;BME280;51139;45.626;6.850;2023-04-10T18:33:18;82224.44;;;7.79;29.43
64711;BME280;51139;45.626;6.850;2023-04-10T18:35:48;82208.31;;;7.59;28.58
64711;BME280;51139;45.626;6.850;2023-04-10T18:38:14;82199.59;;;7.98;28.61
64711;BME280;51139;45.626;6.850;2023-04-10T18:40:39;82199.34;;;7.63;29.67
64711;BME280;51139;45.626;6.850;2023-04-10T18:43:04;82207.34;;;7.88;29.08
64711;BME280;51139;45.626;6.850;2023-04-10T18:45:30;82218.19;;;8.15;30.21
64711;BME280;51139;45.626;6.850;2023-04-10T18:47:58;82226.97;;;8.26;29.74
64711;BME280;51139;45.626;6.850;2023-04-10T18:50:23;82239.13;;;8.13;30.19
64711;BME280;51139;45.626;6.850;2023-04-10T18:52:49;82236.94;;;7.71;30.52
64711;BME280;51139;45.626;6.850;2023-04-10T18:55:14;82237.13;;;7.57;30.44
64711;BME280;51139;45.626;6.850;2023-04-10T18:57:40;82237.47;;;7.46;31.53
64711;BME280;51139;45.626;6.850;2023-04-10T19:00:06;82239.06;;;7.65;31.05
64711;BME280;51139;45.626;6.850;2023-04-10T19:02:32;82237.47;;;7.54;31.37
64711;BME280;51139;45.626;6.850;2023-04-10T19:04:58;82242.72;;;7.15;31.89
64711;BME280;51139;45.626;6.850;2023-04-10T19:07:23;82245.00;;;7.81;30.69
64711;BME280;51139;45.626;6.850;2023-04-10T19:09:48;82242.13;;;8.17;30.11
64711;BME280;51139;45.626;6.850;2023-04-10T19:12:14;82239.75;;;8.45;31.46
64711;BME280;51139;45.626;6.850;2023-04-10T19:14:39;82241.59;;;8.19;31.20
64711;BME280;51139;45.626;6.850;2023-04-10T19:17:05;82249.22;;;7.92;31.41
64711;BME280;51139;45.626;6.850;2023-04-10T19:19:33;82252.63;;;8.33;31.68
64711;BME280;51139;45.626;6.850;2023-04-10T19:21:59;82243.97;;;8.48;30.25
64711;BME280;51139;45.626;6.850;2023-04-10T19:24:25;82233.72;;;8.03;30.64
64711;BME280;51139;45.626;6.850;2023-04-10T19:26:51;82229.56;;;7.62;32.63
64711;BME280;51139;45.626;6.850;2023-04-10T19:29:17;82240.22;;;7.95;30.19
64711;BME280;51139;45.626;6.850;2023-04-10T19:31:42;82249.84;;;8.15;30.43
64711;BME280;51139;45.626;6.850;2023-04-10T19:34:07;82248.41;;;8.30;31.53
64711;BME280;51139;45.626;6.850;2023-04-10T19:36:35;82260.50;;;8.49;31.08
64711;BME280;51139;45.626;6.850;2023-04-10T19:39:02;82262.72;;;8.11;31.71
64711;BME280;51139;45.626;6.850;2023-04-10T19:41:27;82263.59;;;8.06;31.56
64711;BME280;51139;45.626;6.850;2023-04-10T19:43:53;82270.03;;;8.36;31.31
64711;BME280;51139;45.626;6.850;2023-04-10T19:46:19;82273.09;;;8.09;30.82
64711;BME280;51139;45.626;6.850;2023-04-10T19:48:45;82268.84;;;8.29;31.54
64711;BME280;51139;45.626;6.850;2023-04-10T19:51:11;82271.03;;;7.84;31.91
64711;BME280;51139;45.626;6.850;2023-04-10T19:53:37;82275.78;;;7.78;32.12
64711;BME280;51139;45.626;6.850;2023-04-10T19:56:02;82285.41;;;7.99;31.92
64711;BME280;51139;45.626;6.850;2023-04-10T19:58:28;82299.16;;;7.74;32.64
64711;BME280;51139;45.626;6.850;2023-04-10T20:00:54;82305.81;;;7.67;32.97
64711;BME280;51139;45.626;6.850;2023-04-10T20:03:20;82304.41;;;7.89;32.36
64711;BME280;51139;45.626;6.850;2023-04-10T20:05:51;82298.25;;;7.71;32.53
64711;BME280;51139;45.626;6.850;2023-04-10T20:08:17;82291.94;;;7.82;33.24
64711;BME280;51139;45.626;6.850;2023-04-10T20:10:43;82294.38;;;7.49;33.09
64711;BME280;51139;45.626;6.850;2023-04-10T20:13:08;82298.78;;;7.85;33.27
64711;BME280;51139;45.626;6.850;2023-04-10T20:15:34;82303.53;;;7.71;33.32
64711;BME280;51139;45.626;6.850;2023-04-10T20:17:59;82304.06;;;7.78;33.86
64711;BME280;51139;45.626;6.850;2023-04-10T20:20:25;82304.59;;;7.92;33.59
64711;BME280;51139;45.626;6.850;2023-04-10T20:22:50;82304.94;;;8.03;33.22
64711;BME280;51139;45.626;6.850;2023-04-10T20:25:16;82307.59;;;8.03;32.85
64711;BME280;51139;45.626;6.850;2023-04-10T20:27:41;82307.94;;;7.84;33.64
64711;BME280;51139;45.626;6.850;2023-04-10T20:30:07;82317.78;;;7.84;33.80
64711;BME280;51139;45.626;6.850;2023-04-10T20:32:32;82319.91;;;7.85;33.51
64711;BME280;51139;45.626;6.850;2023-04-10T20:34:58;82323.41;;;7.88;33.77
64711;BME280;51139;45.626;6.850;2023-04-10T20:37:23;82319.72;;;7.83;34.35
64711;BME280;51139;45.626;6.850;2023-04-10T20:39:49;82325.88;;;7.94;34.16
64711;BME280;51139;45.626;6.850;2023-04-10T20:42:14;82319.53;;;7.58;35.22
64711;BME280;51139;45.626;6.850;2023-04-10T20:44:41;82320.88;;;7.20;36.09
64711;BME280;51139;45.626;6.850;2023-04-10T20:47:06;82329.72;;;7.38;35.36
64711;BME280;51139;45.626;6.850;2023-04-10T20:49:32;82321.47;;;7.50;35.42
64711;BME280;51139;45.626;6.850;2023-04-10T20:51:57;82326.75;;;7.57;35.38
64711;BME280;51139;45.626;6.850;2023-04-10T20:54:24;82323.00;;;7.29;36.07
64711;BME280;51139;45.626;6.850;2023-04-10T20:56:49;82320.03;;;7.18;36.33
64711;BME280;51139;45.626;6.850;2023-04-10T20:59:16;82316.44;;;6.92;36.65
64711;BME280;51139;45.626;6.850;2023-04-10T21:01:41;82312.97;;;6.60;37.42
64711;BME280;51139;45.626;6.850;2023-04-10T21:04:07;82310.09;;;6.87;37.82
64711;BME280;51139;45.626;6.850;2023-04-10T21:06:32;82307.63;;;6.81;37.86
64711;BME280;51139;45.626;6.850;2023-04-10T21:08:58;82315.53;;;6.81;38.09
64711;BME280;51139;45.626;6.850;2023-04-10T21:11:25;82315.75;;;6.47;38.49
64711;BME280;51139;45.626;6.850;2023-04-10T21:13:51;82301.31;;;6.32;39.41
64711;BME280;51139;45.626;6.850;2023-04-10T21:16:17;82306.88;;;6.65;39.27
64711;BME280;51139;45.626;6.850;2023-04-10T21:18:42;82292.78;;;6.55;39.95
64711;BME280;51139;45.626;6.850;2023-04-10T21:21:08;82295.78;;;6.15;40.49
64711;BME280;51139;45.626;6.850;2023-04-10T21:23:33;82289.69;;;6.20;41.50
64711;BME280;51139;45.626;6.850;2023-04-10T21:25:58;82288.63;;;6.23;40.89
64711;BME280;51139;45.626;6.850;2023-04-10T21:28:25;82298.59;;;6.17;42.38
64711;BME280;51139;45.626;6.850;2023-04-10T21:30:51;82296.94;;;6.35;40.66
64711;BME280;51139;45.626;6.850;2023-04-10T21:33:17;82292.22;;;6.93;39.68
64711;BME280;51139;45.626;6.850;2023-04-10T21:35:42;82282.56;;;6.96;39.69
64711;BME280;51139;45.626;6.850;2023-04-10T21:38:11;82279.38;;;6.90;39.94
64711;BME280;51139;45.626;6.850;2023-04-10T21:40:36;82288.94;;;7.24;38.71
64711;BME280;51139;45.626;6.850;2023-04-10T21:43:02;82287.50;;;7.15;40.70
64711;BME280;51139;45.626;6.850;2023-04-10T21:45:28;82280.69;;;7.20;40.28
64711;BME280;51139;45.626;6.850;2023-04-10T21:47:54;82278.69;;;6.97;40.32
64711;BME280;51139;45.626;6.850;2023-04-10T21:50:19;82273.28;;;7.10;39.61
64711;BME280;51139;45.626;6.850;2023-04-10T21:52:46;82269.16;;;6.70;41.49
64711;BME280;51139;45.626;6.850;2023-04-10T21:55:13;82275.63;;;6.17;42.53
64711;BME280;51139;45.626;6.850;2023-04-10T21:57:39;82280.97;;;6.33;40.79
64711;BME280;51139;45.626;6.850;2023-04-10T22:00:05;82283.59;;;6.85;38.78
64711;BME280;51139;45.626;6.850;2023-04-10T22:02:32;82273.56;;;6.83;38.56
64711;BME280;51139;45.626;6.850;2023-04-10T22:04:57;82272.31;;;6.69;38.56
64711;BME280;51139;45.626;6.850;2023-04-10T22:07:23;82272.50;;;6.71;38.54
64711;BME280;51139;45.626;6.850;2023-04-10T22:09:48;82270.66;;;7.18;39.02
64711;BME280;51139;45.626;6.850;2023-04-10T22:12:14;82274.00;;;7.34;37.47
64711;BME280;51139;45.626;6.850;2023-04-10T22:14:39;82267.25;;;6.79;38.69
64711;BME280;51139;45.626;6.850;2023-04-10T22:17:05;82267.72;;;6.62;38.53
64711;BME280;51139;45.626;6.850;2023-04-10T22:19:30;82270.31;;;6.46;40.00
64711;BME280;51139;45.626;6.850;2023-04-10T22:21:56;82257.97;;;6.93;39.55
64711;BME280;51139;45.626;6.850;2023-04-10T22:24:21;82257.84;;;6.39;40.43
64711;BME280;51139;45.626;6.850;2023-04-10T22:26:47;82271.25;;;6.64;40.35
64711;BME280;51139;45.626;6.850;2023-04-10T22:29:12;82261.34;;;6.34;40.93
64711;BME280;51139;45.626;6.850;2023-04-10T22:31:41;82270.75;;;6.74;39.36
64711;BME280;51139;45.626;6.850;2023-04-10T22:34:08;82261.72;;;6.46;38.41
64711;BME280;51139;45.626;6.850;2023-04-10T22:36:34;82268.69;;;6.35;38.41
64711;BME280;51139;45.626;6.850;2023-04-10T22:39:00;82265.38;;;6.42;40.65
64711;BME280;51139;45.626;6.850;2023-04-10T22:41:25;82272.81;;;6.60;39.71
64711;BME280;51139;45.626;6.850;2023-04-10T22:43:51;82263.38;;;6.72;40.36
64711;BME280;51139;45.626;6.850;2023-04-10T22:46:16;82253.72;;;6.67;41.55
64711;BME280;51139;45.626;6.850;2023-04-10T22:48:42;82245.34;;;6.99;40.59
64711;BME280;51139;45.626;6.850;2023-04-10T22:51:11;82260.09;;;7.03;40.38
64711;BME280;51139;45.626;6.850;2023-04-10T22:53:37;82257.50;;;7.26;39.71
64711;BME280;51139;45.626;6.850;2023-04-10T22:56:06;82242.91;;;7.33;39.89
64711;BME280;51139;45.626;6.850;2023-04-10T22:58:31;82241.38;;;6.54;42.37
64711;BME280;51139;45.626;6.850;2023-04-10T23:00:57;82242.22;;;6.41;41.14
64711;BME280;51139;45.626;6.850;2023-04-10T23:03:22;82244.22;;;6.64;40.43
64711;BME280;51139;45.626;6.850;2023-04-10T23:05:48;82241.28;;;6.83;40.34
64711;BME280;51139;45.626;6.850;2023-04-10T23:08:13;82238.03;;;6.46;42.01
64711;BME280;51139;45.626;6.850;2023-04-10T23:10:39;82237.38;;;6.61;40.98
64711;BME280;51139;45.626;6.850;2023-04-10T23:13:04;82236.91;;;6.93;39.96
64711;BME280;51139;45.626;6.850;2023-04-10T23:15:30;82234.31;;;7.40;39.38
64711;BME280;51139;45.626;6.850;2023-04-10T23:17:55;82236.03;;;6.91;40.24
64711;BME280;51139;45.626;6.850;2023-04-10T23:20:21;82232.28;;;6.63;40.37
64711;BME280;51139;45.626;6.850;2023-04-10T23:22:46;82228.66;;;6.97;40.20
64711;BME280;51139;45.626;6.850;2023-04-10T23:25:13;82233.38;;;6.67;40.36
64711;BME280;51139;45.626;6.850;2023-04-10T23:27:39;82224.25;;;6.92;40.34
